Time;durP1;ratioP1;P1;durP2;ratioP2;P2;SDS_P1;SDS_P2;PMS_P1;PMS_P2;Temp;Humidity;BMP_temperature;BMP_pressure;BME280_temperature;BME280_humidity;BME280_pressure;Samples;Min_cycle;Max_cycle;Signal;HPM_P1;HPM_P2
2023/11/30 00:02:07;;;;;;;38.53;15.90;;;;;;;-1.95;100.00;96074.53;5004396;28;20426;-80
2023/11/30 00:04:33;;;;;;;42.92;18.15;;;;;;;-1.93;100.00;96082.91;5001831;28;20859;-79
2023/11/30 00:06:59;;;;;;;45.20;18.17;;;;;;;-1.90;100.00;96073.94;4983039;28;20398;-80
2023/11/30 00:09:25;;;;;;;45.63;17.75;;;;;;;-1.89;100.00;96071.16;4998993;28;20405;-80
2023/11/30 00:11:52;;;;;;;41.47;16.27;;;;;;;-1.89;100.00;96071.16;4999438;28;20418;-79
2023/11/30 00:14:18;;;;;;;40.80;16.80;;;;;;;-1.89;100.00;96062.56;4998747;28;20871;-80
2023/11/30 00:16:45;;;;;;;41.60;17.92;;;;;;;-1.93;100.00;96064.78;4999856;28;20398;-80
2023/11/30 00:19:11;;;;;;;37.75;16.10;;;;;;;-1.94;100.00;96058.00;5000021;28;20430;-79
2023/11/30 00:21:38;;;;;;;45.03;18.42;;;;;;;-1.92;100.00;96066.38;4999233;28;20432;-79
2023/11/30 00:24:04;;;;;;;45.43;17.37;;;;;;;-1.90;100.00;96058.38;4999453;28;20943;-79
2023/11/30 00:26:30;;;;;;;46.53;18.30;;;;;;;-1.90;100.00;96053.19;4999132;28;20406;-79
2023/11/30 00:28:56;;;;;;;46.50;18.08;;;;;;;-1.85;100.00;96048.19;4998895;28;20696;-79
2023/11/30 00:31:22;;;;;;;44.40;18.40;;;;;;;-1.83;100.00;96048.78;4999171;28;20402;-79
2023/11/30 00:33:50;;;;;;;42.50;17.30;;;;;;;-1.83;100.00;96044.41;4998977;28;20414;-80
2023/11/30 00:36:16;;;;;;;48.03;18.73;;;;;;;-1.85;100.00;96043.78;4998011;28;20441;-79
2023/11/30 00:38:42;;;;;;;38.75;16.42;;;;;;;-1.87;100.00;96032.03;4998217;28;20875;-79
2023/11/30 00:41:14;;;;;;;44.05;18.08;;;;;;;-1.89;100.00;96027.06;4998648;28;20407;-80
2023/11/30 00:43:40;;;;;;;40.45;16.73;;;;;;;-1.88;100.00;96020.09;4999106;28;20441;-79
2023/11/30 00:46:08;;;;;;;49.45;20.20;;;;;;;-1.88;100.00;96015.66;4999132;28;20394;-80
2023/11/30 00:48:35;;;;;;;51.05;19.35;;;;;;;-1.83;100.00;96013.28;5007395;28;20441;-79
2023/11/30 00:51:02;;;;;;;50.10;19.67;;;;;;;-1.79;100.00;96024.00;5006876;28;20670;-79
2023/11/30 00:53:28;;;;;;;45.35;17.95;;;;;;;-1.77;100.00;96022.03;5003557;28;20478;-79
2023/11/30 00:55:54;;;;;;;47.33;19.23;;;;;;;-1.76;100.00;96013.25;5000941;28;20406;-79
2023/11/30 00:58:20;;;;;;;46.15;18.67;;;;;;;-1.76;100.00;96005.47;5002495;28;20501;-79
2023/11/30 01:00:47;;;;;;;53.22;20.60;;;;;;;-1.76;100.00;96015.84;5001976;28;20497;-79
2023/11/30 01:03:13;;;;;;;46.15;18.70;;;;;;;-1.76;100.00;96021.81;5003495;28;20573;-79
2023/11/30 01:05:39;;;;;;;57.47;22.00;;;;;;;-1.78;100.00;96023.81;5003271;28;20485;-80
2023/11/30 01:08:06;;;;;;;47.28;19.33;;;;;;;-1.77;100.00;96020.22;5002950;28;20405;-79
2023/11/30 01:10:32;;;;;;;59.53;22.08;;;;;;;-1.78;100.00;96020.41;5004091;28;20467;-79
2023/11/30 01:12:59;;;;;;;44.33;18.33;;;;;;;-1.78;100.00;96028.19;5005833;28;20422;-79
2023/11/30 01:15:25;;;;;;;62.17;23.05;;;;;;;-1.80;100.00;96027.59;4999956;28;20399;-78
2023/11/30 01:17:51;;;;;;;60.80;22.80;;;;;;;-1.79;100.00;96027.41;5002394;28;20406;-80
2023/11/30 01:20:17;;;;;;;65.10;25.40;;;;;;;-1.76;100.00;96028.81;4998848;28;20403;-80
2023/11/30 01:22:43;;;;;;;69.90;26.25;;;;;;;-1.73;100.00;96023.97;5000675;28;20418;-79
2023/11/30 01:25:11;;;;;;;67.97;25.38;;;;;;;-1.71;100.00;96027.16;5001935;28;20403;-79
2023/11/30 01:27:37;;;;;;;62.00;23.90;;;;;;;-1.70;100.00;96026.16;5002776;28;20410;-79
2023/11/30 01:30:03;;;;;;;61.67;22.77;;;;;;;-1.70;100.00;96020.97;5002158;28;20441;-80
2023/11/30 01:32:29;;;;;;;65.10;23.75;;;;;;;-1.71;100.00;96010.81;4998822;28;20434;-80
2023/11/30 01:34:56;;;;;;;54.95;21.88;;;;;;;-1.74;100.00;96006.84;4994709;28;20399;-78
2023/11/30 01:37:22;;;;;;;62.58;23.42;;;;;;;-1.76;100.00;96016.63;5001882;28;20403;-81
2023/11/30 01:39:48;;;;;;;68.57;24.97;;;;;;;-1.80;100.00;96012.03;5000698;28;20429;-77
2023/11/30 01:42:16;;;;;;;70.80;25.85;;;;;;;-1.78;100.00;96012.63;5002635;28;20422;-79
2023/11/30 01:44:42;;;;;;;71.00;26.50;;;;;;;-1.76;100.00;96021.81;5002263;28;20494;-79
2023/11/30 01:47:09;;;;;;;68.68;24.50;;;;;;;-1.75;100.00;96023.41;5002808;28;20528;-80
2023/11/30 01:49:35;;;;;;;56.60;22.17;;;;;;;-1.74;100.00;96019.81;5000719;28;20390;-80
2023/11/30 01:52:02;;;;;;;49.08;20.30;;;;;;;-1.76;100.00;96014.03;5003156;28;20502;-80
2023/11/30 01:54:28;;;;;;;48.05;18.95;;;;;;;-1.78;100.00;96010.06;4996215;28;20875;-80
2023/11/30 01:56:55;;;;;;;42.67;17.02;;;;;;;-1.82;100.00;96003.69;5002787;28;20398;-80
2023/11/30 01:59:22;;;;;;;41.08;16.45;;;;;;;-1.85;100.00;96002.31;5002976;28;20814;-81
2023/11/30 02:01:48;;;;;;;34.90;14.98;;;;;;;-1.89;100.00;95993.38;5004465;28;20433;-80
2023/11/30 02:04:15;;;;;;;33.80;14.38;;;;;;;-1.94;100.00;96006.13;5004439;28;20417;-80
2023/11/30 02:06:44;;;;;;;30.33;14.13;;;;;;;-1.99;100.00;96009.34;5004874;28;20406;-79
2023/11/30 02:09:11;;;;;;;29.95;13.63;;;;;;;-2.04;100.00;96006.59;4986293;28;20533;-79
2023/11/30 02:11:38;;;;;;;27.00;12.83;;;;;;;-2.10;100.00;95984.06;5004856;28;20458;-80
2023/11/30 02:14:04;;;;;;;27.90;12.60;;;;;;;-2.15;100.00;95985.69;5006789;28;20434;-79
2023/11/30 02:16:32;;;;;;;23.98;11.30;;;;;;;-2.23;100.00;95978.94;5008147;28;20399;-80
2023/11/30 02:18:58;;;;;;;22.58;11.13;;;;;;;-2.29;100.00;95955.63;5010914;28;20411;-79
2023/11/30 02:21:25;;;;;;;20.17;9.90;;;;;;;-2.38;100.00;95953.28;5008648;28;20398;-79
2023/11/30 02:23:52;;;;;;;18.25;9.27;;;;;;;-2.46;100.00;95961.28;5008962;28;20449;-80
2023/11/30 02:26:18;;;;;;;18.67;9.70;;;;;;;-2.51;100.00;95968.88;5008361;28;20399;-80
2023/11/30 02:28:45;;;;;;;20.50;10.40;;;;;;;-2.55;100.00;95977.25;5007119;28;20398;-80
2023/11/30 02:31:11;;;;;;;24.73;11.07;;;;;;;-2.59;100.00;95968.28;5007615;28;20402;-80
2023/11/30 02:33:37;;;;;;;23.92;10.82;;;;;;;-2.63;100.00;95967.91;5007367;28;20410;-79
2023/11/30 02:36:04;;;;;;;23.48;10.90;;;;;;;-2.64;100.00;95968.91;5006151;28;20425;-79
2023/11/30 02:38:30;;;;;;;20.65;10.63;;;;;;;-2.65;100.00;95967.31;5006126;28;20405;-78
2023/11/30 02:40:58;;;;;;;22.38;10.50;;;;;;;-2.65;100.00;95964.72;5004725;28;20440;-80
2023/11/30 02:43:24;;;;;;;24.83;11.23;;;;;;;-2.65;100.00;95963.94;5007080;28;20438;-79
2023/11/30 02:45:50;;;;;;;22.08;11.00;;;;;;;-2.63;100.00;95969.72;5006589;28;20403;-80
2023/11/30 02:48:16;;;;;;;21.37;10.17;;;;;;;-2.62;100.00;95958.34;5006965;28;20861;-80
2023/11/30 02:50:42;;;;;;;20.15;9.80;;;;;;;-2.62;100.00;95959.13;5009795;28;20409;-80
2023/11/30 02:53:08;;;;;;;24.33;10.20;;;;;;;-2.62;100.00;95948.78;5015590;28;20417;-80
2023/11/30 02:55:35;;;;;;;18.55;9.15;;;;;;;-2.63;100.00;95957.53;5014851;28;20421;-80
2023/11/30 02:58:02;;;;;;;18.23;9.30;;;;;;;-2.63;100.00;95951.59;5009181;28;20485;-80
2023/11/30 03:00:28;;;;;;;19.98;9.30;;;;;;;-2.63;100.00;95954.19;5007540;28;20410;-81
2023/11/30 03:02:54;;;;;;;17.60;8.70;;;;;;;-2.65;100.00;95956.97;5006896;28;20422;-80
2023/11/30 03:05:20;;;;;;;18.48;9.05;;;;;;;-2.66;100.00;95963.13;5006091;28;20402;-80
2023/11/30 03:07:47;;;;;;;15.55;8.55;;;;;;;-2.66;100.00;95972.69;5005188;28;20517;-79
2023/11/30 03:10:13;;;;;;;15.13;7.90;;;;;;;-2.66;100.00;95970.91;5006067;28;20406;-79
2023/11/30 03:12:39;;;;;;;15.60;7.70;;;;;;;-2.67;100.00;95966.72;5006137;28;20497;-79
2023/11/30 03:15:08;;;;;;;17.00;8.40;;;;;;;-2.66;100.00;95960.53;5005557;28;20426;-79
2023/11/30 03:17:34;;;;;;;17.40;9.30;;;;;;;-2.65;100.00;95954.38;5005860;28;20399;-82
2023/11/30 03:20:00;;;;;;;18.73;9.48;;;;;;;-2.63;100.00;95943.81;5005686;28;20735;-80
2023/11/30 03:22:26;;;;;;;20.63;9.52;;;;;;;-2.63;100.00;95944.59;5005278;28;20446;-80
2023/11/30 03:24:52;;;;;;;17.30;9.40;;;;;;;-2.60;100.00;95939.00;5004776;28;20406;-80
2023/11/30 03:27:18;;;;;;;21.35;9.65;;;;;;;-2.57;100.00;95943.00;5006745;28;20407;-80
2023/11/30 03:29:45;;;;;;;22.08;9.85;;;;;;;-2.56;100.00;95929.84;5012677;28;20466;-80
2023/11/30 03:32:12;;;;;;;17.15;8.45;;;;;;;-2.55;100.00;95918.47;5009827;28;20449;-80
2023/11/30 03:34:38;;;;;;;18.02;8.80;;;;;;;-2.53;100.00;95913.88;5005304;28;20402;-79
2023/11/30 03:37:04;;;;;;;27.33;11.32;;;;;;;-2.51;100.00;95914.47;5007646;28;20437;-80
2023/11/30 03:39:30;;;;;;;23.45;11.57;;;;;;;-2.51;100.00;95917.06;5005018;28;20413;-80
2023/11/30 03:41:57;;;;;;;23.70;11.70;;;;;;;-2.50;100.00;95915.28;5005509;28;20435;-80
2023/11/30 03:44:23;;;;;;;29.47;13.00;;;;;;;-2.49;100.00;95911.69;5004888;28;20735;-80
2023/11/30 03:46:49;;;;;;;23.85;11.52;;;;;;;-2.50;100.00;95904.91;5000023;28;20410;-78
2023/11/30 03:49:16;;;;;;;24.80;11.98;;;;;;;-2.49;100.00;95909.88;4998871;28;20490;-78
2023/11/30 03:51:42;;;;;;;24.08;11.02;;;;;;;-2.49;100.00;95904.72;4998387;28;20491;-78
2023/11/30 03:54:09;;;;;;;23.88;10.60;;;;;;;-2.48;100.00;95908.09;4998348;28;20410;-79
2023/11/30 03:56:35;;;;;;;21.55;10.43;;;;;;;-2.48;100.00;95906.28;5000109;28;20403;-78
2023/11/30 03:59:01;;;;;;;26.58;11.52;;;;;;;-2.47;100.00;95904.47;4999821;28;20420;-78
2023/11/30 04:01:27;;;;;;;24.77;11.30;;;;;;;-2.46;100.00;95899.09;5004043;28;20406;-79
2023/11/30 04:03:53;;;;;;;26.70;11.90;;;;;;;-2.44;100.00;95899.69;5006764;28;20441;-79
2023/11/30 04:06:23;;;;;;;27.05;12.48;;;;;;;-2.41;100.00;95894.13;5004343;28;20490;-80
2023/11/30 04:08:49;;;;;;;33.20;14.30;;;;;;;-2.38;100.00;95890.28;5004250;28;20457;-79
2023/11/30 04:11:15;;;;;;;30.40;13.68;;;;;;;-2.37;100.00;95884.91;5004392;28;20413;-80
2023/11/30 04:13:44;;;;;;;28.00;12.90;;;;;;;-2.34;100.00;95886.31;5004754;28;20576;-80
2023/11/30 04:16:10;;;;;;;31.48;14.00;;;;;;;-2.32;100.00;95879.09;5005166;28;20525;-80
2023/11/30 04:18:36;;;;;;;36.65;15.32;;;;;;;-2.31;100.00;95875.50;5003601;28;20751;-80
2023/11/30 04:21:03;;;;;;;34.90;14.15;;;;;;;-2.28;100.00;95869.13;5003893;28;20518;-80
2023/11/30 04:23:31;;;;;;;30.80;13.17;;;;;;;-2.28;100.00;95862.16;5004047;28;20422;-79
2023/11/30 04:25:57;;;;;;;27.98;12.10;;;;;;;-2.27;100.00;95860.34;5004627;28;20410;-80
2023/11/30 04:28:23;;;;;;;26.20;12.68;;;;;;;-2.26;100.00;95862.75;5000880;28;20394;-80
2023/11/30 04:30:49;;;;;;;25.10;11.50;;;;;;;-2.26;100.00;95849.78;5000081;28;20413;-80
2023/11/30 04:33:15;;;;;;;22.73;10.43;;;;;;;-2.25;100.00;95851.34;4999692;28;20417;-79
2023/11/30 04:35:41;;;;;;;22.50;10.68;;;;;;;-2.24;100.00;95844.38;4999704;28;20779;-79
2023/11/30 04:38:08;;;;;;;26.45;11.38;;;;;;;-2.23;100.00;95856.34;4999399;28;20405;-79
2023/11/30 04:40:35;;;;;;;26.67;11.18;;;;;;;-2.23;100.00;95853.75;4999324;28;20402;-80
2023/11/30 04:43:02;;;;;;;22.40;11.80;;;;;;;-2.23;100.00;95851.94;5002848;28;20424;-80
2023/11/30 04:45:28;;;;;;;25.40;11.27;;;;;;;-2.21;100.00;95854.34;5000023;28;20394;-80
2023/11/30 04:47:54;;;;;;;22.10;10.55;;;;;;;-2.21;100.00;95852.53;4999857;28;20425;-79
2023/11/30 04:50:20;;;;;;;29.47;11.63;;;;;;;-2.20;100.00;95855.94;4999429;28;20938;-81
2023/11/30 04:52:46;;;;;;;26.75;12.18;;;;;;;-2.21;100.00;95855.13;4999665;28;20752;-79
2023/11/30 04:55:13;;;;;;;25.55;11.73;;;;;;;-2.22;100.00;95858.72;4999898;28;20410;-79
2023/11/30 04:57:40;;;;;;;27.63;12.35;;;;;;;-2.22;100.00;95847.56;5000434;28;20398;-81
2023/11/30 05:00:08;;;;;;;26.52;11.82;;;;;;;-2.24;100.00;95844.38;4999947;28;20395;-81
2023/11/30 05:02:37;;;;;;;26.63;11.80;;;;;;;-2.27;100.00;95843.00;5000225;28;20504;-80
2023/11/30 05:05:05;;;;;;;23.75;11.13;;;;;;;-2.30;100.00;95837.44;4999928;28;20434;-80
2023/11/30 05:07:31;;;;;;;23.42;10.95;;;;;;;-2.35;100.00;95844.06;4999131;28;20747;-81
2023/11/30 05:09:57;;;;;;;23.20;11.00;;;;;;;-2.37;100.00;95846.06;5000821;28;20402;-79
2023/11/30 05:12:24;;;;;;;33.63;14.48;;;;;;;-2.43;100.00;95856.44;4999766;28;20772;-81
2023/11/30 05:14:52;;;;;;;31.00;14.10;;;;;;;-2.45;100.00;95856.66;4999650;28;20454;-79
2023/11/30 05:17:18;;;;;;;32.23;13.87;;;;;;;-2.48;100.00;95864.06;4999648;28;20742;-80
2023/11/30 05:19:44;;;;;;;32.00;14.88;;;;;;;-2.52;100.00;95858.47;4999954;28;20466;-79
2023/11/30 05:22:10;;;;;;;32.42;14.93;;;;;;;-2.54;100.00;95857.09;4998232;28;20421;-80
2023/11/30 05:24:36;;;;;;;29.73;14.25;;;;;;;-2.55;100.00;95847.72;4999488;28;20402;-81
2023/11/30 05:27:03;;;;;;;27.77;14.30;;;;;;;-2.57;100.00;95840.19;4999564;28;20394;-80
2023/11/30 05:29:29;;;;;;;28.67;13.50;;;;;;;-2.55;100.00;95834.78;4999662;28;20422;-83
2023/11/30 05:31:57;;;;;;;26.27;12.73;;;;;;;-2.56;100.00;95838.38;4998202;28;20538;-81
2023/11/30 05:34:23;;;;;;;30.07;13.80;;;;;;;-2.54;100.00;95844.94;4990144;28;20406;-79
2023/11/30 05:36:49;;;;;;;28.27;13.13;;;;;;;-2.51;100.00;95848.91;4995865;28;20402;-80
2023/11/30 05:39:15;;;;;;;25.25;12.80;;;;;;;-2.49;100.00;95850.31;4997729;28;20851;-80
2023/11/30 05:41:42;;;;;;;25.77;11.90;;;;;;;-2.46;100.00;95844.69;4998075;28;20418;-79
2023/11/30 05:44:08;;;;;;;23.25;11.45;;;;;;;-2.43;100.00;95843.50;4998901;28;20473;-80
2023/11/30 05:46:34;;;;;;;21.07;10.30;;;;;;;-2.41;100.00;95846.69;4998252;28;20407;-81
2023/11/30 05:49:02;;;;;;;18.58;9.60;;;;;;;-2.40;100.00;95845.66;5001234;28;20570;-80
2023/11/30 05:51:28;;;;;;;19.75;10.25;;;;;;;-2.38;100.00;95834.09;5002261;28;20402;-80
2023/11/30 05:53:54;;;;;;;21.00;9.95;;;;;;;-2.36;100.00;95833.91;5001241;28;20445;-81
2023/11/30 05:56:20;;;;;;;20.52;10.45;;;;;;;-2.33;100.00;95835.28;5002535;28;20871;-80
2023/11/30 05:58:46;;;;;;;18.53;9.73;;;;;;;-2.33;100.00;95820.50;5002809;28;20510;-80
2023/11/30 06:01:12;;;;;;;19.75;9.75;;;;;;;-2.31;100.00;95823.69;5002407;28;20434;-80
2023/11/30 06:03:39;;;;;;;19.45;9.25;;;;;;;-2.29;100.00;95823.47;5006656;28;20458;-82
2023/11/30 06:06:10;;;;;;;16.95;9.10;;;;;;;-2.27;100.00;95824.06;4997823;28;20421;-81
2023/11/30 06:08:36;;;;;;;18.10;8.88;;;;;;;-2.26;100.00;95818.69;5000630;28;20399;-80
2023/11/30 06:11:02;;;;;;;18.52;9.10;;;;;;;-2.25;100.00;95817.66;5000350;28;20406;-80
2023/11/30 06:13:28;;;;;;;22.70;11.30;;;;;;;-2.23;100.00;95813.06;5000719;28;20479;-80
2023/11/30 06:15:55;;;;;;;23.55;12.27;;;;;;;-2.22;100.00;95806.09;5001864;28;20434;-80
2023/11/30 06:18:21;;;;;;;24.95;13.18;;;;;;;-2.21;100.00;95810.28;5002672;28;20509;-80
2023/11/30 06:20:47;;;;;;;27.30;13.15;;;;;;;-2.20;100.00;95806.69;4998840;28;20482;-80
2023/11/30 06:23:15;;;;;;;31.00;15.55;;;;;;;-2.20;100.00;95804.91;4999270;28;20418;-80
2023/11/30 06:25:42;;;;;;;29.00;15.95;;;;;;;-2.22;100.00;95801.72;5001341;28;20411;-77
2023/11/30 06:28:09;;;;;;;26.70;13.93;;;;;;;-2.20;100.00;95796.31;5002342;28;20455;-81
2023/11/30 06:30:35;;;;;;;24.88;12.90;;;;;;;-2.22;100.00;95791.34;5004068;28;20407;-81
2023/11/30 06:33:01;;;;;;;24.75;13.45;;;;;;;-2.22;100.00;95793.94;5003611;28;20410;-80
2023/11/30 06:35:27;;;;;;;23.83;12.77;;;;;;;-2.22;100.00;95796.53;5001832;28;20394;-80
2023/11/30 06:37:54;;;;;;;23.27;12.57;;;;;;;-2.22;100.00;95793.94;5001434;28;20554;-81
2023/11/30 06:40:21;;;;;;;21.38;12.60;;;;;;;-2.23;100.00;95787.16;5001839;28;20402;-81
2023/11/30 06:42:47;;;;;;;23.45;12.30;;;;;;;-2.23;100.00;95789.75;5007177;28;20414;-81
2023/11/30 06:45:13;;;;;;;22.08;11.90;;;;;;;-2.22;100.00;95777.59;5003586;28;20409;-80
2023/11/30 06:47:40;;;;;;;18.53;10.67;;;;;;;-2.23;100.00;95774.19;5004596;28;20387;-82
2023/11/30 06:50:07;;;;;;;21.08;10.90;;;;;;;-2.22;100.00;95772.41;5006440;28;20402;-81
2023/11/30 06:52:33;;;;;;;18.60;10.57;;;;;;;-2.21;100.00;95781.78;5003490;28;20410;-82
2023/11/30 06:54:59;;;;;;;23.70;11.95;;;;;;;-2.20;100.00;95781.56;5001346;28;20724;-82
2023/11/30 06:57:27;;;;;;;22.08;11.50;;;;;;;-2.19;100.00;95779.78;5008588;28;20390;-84
2023/11/30 06:59:53;;;;;;;21.02;12.02;;;;;;;-2.18;100.00;95789.13;5007575;28;20417;-81
2023/11/30 07:02:19;;;;;;;24.70;12.50;;;;;;;-2.18;100.00;95782.13;4998450;28;20834;-83
2023/11/30 07:04:45;;;;;;;23.35;12.23;;;;;;;-2.16;100.00;95787.09;4997814;28;20823;-80
2023/11/30 07:07:11;;;;;;;23.48;12.43;;;;;;;-2.14;100.00;95788.50;5000474;28;20453;-80
2023/11/30 07:09:38;;;;;;;22.52;11.77;;;;;;;-2.13;100.00;95790.09;4999967;28;20536;-81
2023/11/30 07:12:04;;;;;;;24.38;12.98;;;;;;;-2.10;100.00;95779.28;4998782;28;20883;-82
2023/11/30 07:14:32;;;;;;;33.58;16.73;;;;;;;-2.06;100.00;95767.50;4998287;28;20394;-81
2023/11/30 07:16:58;;;;;;;31.80;14.80;;;;;;;-2.03;100.00;95761.09;5009048;28;20390;-81
2023/11/30 07:19:24;;;;;;;28.85;13.40;;;;;;;-2.00;100.00;95755.47;5015844;28;20402;-82
2023/11/30 07:21:50;;;;;;;22.80;12.35;;;;;;;-1.98;100.00;95763.84;5001806;28;20528;-82
2023/11/30 07:24:16;;;;;;;22.63;11.68;;;;;;;-1.97;100.00;95773.22;4997786;28;20763;-82
2023/11/30 07:26:44;;;;;;;25.03;12.23;;;;;;;-1.94;100.00;95780.56;4999693;28;20478;-81
2023/11/30 07:29:12;;;;;;;20.23;10.75;;;;;;;-1.92;100.00;95782.94;4982909;28;20513;-81
2023/11/30 07:31:39;;;;;;;18.55;10.10;;;;;;;-1.90;100.00;95792.09;4999044;28;20460;-82
2023/11/30 07:34:06;;;;;;;21.88;11.43;;;;;;;-1.87;100.00;95785.69;4998836;28;20456;-82
2023/11/30 07:36:32;;;;;;;20.65;10.98;;;;;;;-1.83;100.00;95792.03;4998402;28;20438;-82
2023/11/30 07:38:58;;;;;;;22.10;11.68;;;;;;;-1.81;100.00;95792.63;4998681;28;20394;-82
2023/11/30 07:41:24;;;;;;;22.50;11.40;;;;;;;-1.77;100.00;95796.38;5000826;28;20418;-82
2023/11/30 07:43:50;;;;;;;25.92;12.02;;;;;;;-1.75;100.00;95791.78;5003362;28;20418;-82
2023/11/30 07:46:17;;;;;;;28.77;13.52;;;;;;;-1.73;100.00;95793.13;4999504;28;20398;-82
2023/11/30 07:48:44;;;;;;;32.45;14.07;;;;;;;-1.70;100.00;95784.16;4999278;28;20447;-82
2023/11/30 07:51:10;;;;;;;27.77;13.30;;;;;;;-1.67;100.00;95781.94;4998440;28;20438;-82
2023/11/30 07:53:36;;;;;;;25.27;12.13;;;;;;;-1.63;100.00;95779.69;5001005;28;20413;-79
2023/11/30 07:56:03;;;;;;;28.83;12.93;;;;;;;-1.60;100.00;95785.25;5011673;28;20401;-82
2023/11/30 07:58:29;;;;;;;28.88;12.82;;;;;;;-1.56;100.00;95770.03;5010712;28;20406;-84
2023/11/30 08:00:56;;;;;;;25.40;11.90;;;;;;;-1.52;100.00;95768.63;5011316;28;20383;-81
2023/11/30 08:03:23;;;;;;;27.00;12.80;;;;;;;-1.46;100.00;95759.97;5010450;28;20517;-81
2023/11/30 08:05:50;;;;;;;25.90;12.15;;;;;;;-1.41;100.00;95751.53;5007702;28;20406;-82
2023/11/30 08:08:17;;;;;;;27.63;11.95;;;;;;;-1.34;100.00;95757.44;5003534;28;20398;-79
2023/11/30 08:10:43;;;;;;;28.23;12.05;;;;;;;-1.29;100.00;95752.41;5007464;28;20434;-83
2023/11/30 08:13:13;;;;;;;26.90;12.30;;;;;;;-1.24;100.00;95760.34;5002039;28;20811;-82
2023/11/30 08:15:39;;;;;;;26.42;12.32;;;;;;;-1.20;100.00;95767.47;4999873;28;20907;-81
2023/11/30 08:18:07;;;;;;;27.00;12.70;;;;;;;-1.15;100.00;95771.22;4999913;28;20409;-83
2023/11/30 08:20:34;;;;;;;32.00;14.32;;;;;;;-1.12;100.00;95774.16;5001523;28;20486;-83
2023/11/30 08:23:02;;;;;;;26.38;13.38;;;;;;;-1.08;100.00;95769.34;5000133;28;20411;-82
2023/11/30 08:25:28;;;;;;;27.13;12.70;;;;;;;-1.06;100.00;95768.13;5000885;28;20395;-83
2023/11/30 08:27:55;;;;;;;32.25;15.75;;;;;;;-1.02;100.00;95776.25;5000245;28;20871;-81
2023/11/30 08:30:21;;;;;;;36.83;16.45;;;;;;;-0.99;100.00;95773.25;5005568;28;20403;-83
2023/11/30 08:32:47;;;;;;;52.33;24.07;;;;;;;-0.96;100.00;95762.41;5000587;28;20406;-83
2023/11/30 08:35:13;;;;;;;62.45;27.85;;;;;;;-0.92;100.00;95750.56;4999222;28;20402;-81
2023/11/30 08:37:39;;;;;;;52.63;25.02;;;;;;;-0.88;100.00;95754.31;5003899;28;20413;-79
2023/11/30 08:40:10;;;;;;;63.90;28.20;;;;;;;-0.88;100.00;95752.50;5003008;28;20409;-81
2023/11/30 08:42:37;;;;;;;68.50;29.73;;;;;;;-0.85;100.00;95741.69;5002312;28;20453;-83
2023/11/30 08:45:04;;;;;;;66.15;29.42;;;;;;;-0.82;100.00;95733.44;5002508;28;20405;-80
2023/11/30 08:47:30;;;;;;;63.75;30.42;;;;;;;-0.83;100.00;95731.84;5001671;28;20402;-80
2023/11/30 08:49:56;;;;;;;59.40;26.92;;;;;;;-0.71;100.00;95739.69;5001278;28;20433;-82
2023/11/30 08:52:23;;;;;;;61.65;26.80;;;;;;;-0.66;100.00;95744.22;5001192;28;20494;-81
2023/11/30 08:54:49;;;;;;;56.97;27.38;;;;;;;-0.60;100.00;95743.38;4996270;28;20398;-80
2023/11/30 08:57:17;;;;;;;52.47;23.73;;;;;;;-0.52;100.00;95738.63;4996692;28;20785;-80
2023/11/30 08:59:43;;;;;;;41.53;19.73;;;;;;;-0.43;100.00;95737.31;4995846;28;20409;-81
2023/11/30 09:02:10;;;;;;;47.47;22.63;;;;;;;-0.35;100.00;95738.78;4996440;28;20921;-81
2023/11/30 09:04:37;;;;;;;38.85;18.95;;;;;;;-0.28;100.00;95736.09;4996086;28;20893;-81
2023/11/30 09:07:03;;;;;;;34.90;18.50;;;;;;;-0.23;100.00;95729.22;4996371;28;20438;-80
2023/11/30 09:09:30;;;;;;;33.17;16.98;;;;;;;-0.21;100.00;95724.56;4995902;28;20829;-82
2023/11/30 09:11:56;;;;;;;30.05;15.50;;;;;;;-0.16;100.00;95729.91;4996050;28;20398;-80
2023/11/30 09:14:23;;;;;;;22.15;12.68;;;;;;;-0.08;100.00;95721.00;4996750;28;20402;-80
2023/11/30 09:16:50;;;;;;;20.55;12.10;;;;;;;-0.02;100.00;95726.09;4995906;28;20402;-81
2023/11/30 09:19:16;;;;;;;21.73;12.27;;;;;;;0.06;100.00;95731.97;4996351;28;20405;-80
2023/11/30 09:21:42;;;;;;;21.65;11.45;;;;;;;0.12;100.00;95734.44;4996783;28;20394;-81
2023/11/30 09:24:09;;;;;;;16.45;10.07;;;;;;;0.18;100.00;95735.34;5001234;28;20497;-83
2023/11/30 09:26:36;;;;;;;16.17;10.48;;;;;;;0.23;100.00;95736.25;5000336;28;20406;-83
2023/11/30 09:29:02;;;;;;;15.05;9.38;;;;;;;0.28;100.00;95733.78;5009523;28;20407;-82
2023/11/30 09:31:30;;;;;;;14.65;9.90;;;;;;;0.33;100.00;95731.28;5000782;28;20478;-82
2023/11/30 09:33:57;;;;;;;13.95;9.57;;;;;;;0.35;100.00;95728.47;5007528;28;20922;-83
2023/11/30 09:36:23;;;;;;;15.88;10.00;;;;;;;0.38;100.00;95733.97;5008964;28;20403;-82
2023/11/30 09:38:50;;;;;;;15.57;10.07;;;;;;;0.42;100.00;95733.53;5002072;28;20477;-82
2023/11/30 09:41:19;;;;;;;14.55;9.82;;;;;;;0.44;100.00;95723.69;4999715;28;20470;-81
2023/11/30 09:43:45;;;;;;;14.93;10.05;;;;;;;0.47;100.00;95726.63;5001936;28;20421;-81
2023/11/30 09:46:11;;;;;;;14.10;9.77;;;;;;;0.48;100.00;95730.81;5002594;28;20398;-81
2023/11/30 09:48:39;;;;;;;13.38;8.90;;;;;;;0.48;100.00;95724.81;5002589;28;20406;-80
2023/11/30 09:51:08;;;;;;;13.98;9.05;;;;;;;0.49;100.00;95731.59;5003262;28;20414;-81
2023/11/30 09:53:34;;;;;;;15.33;9.47;;;;;;;0.49;100.00;95727.19;5001909;28;20835;-81
2023/11/30 09:56:00;;;;;;;15.70;10.35;;;;;;;0.50;100.00;95722.78;5002628;28;20847;-82
2023/11/30 09:58:26;;;;;;;36.78;15.88;;;;;;;0.46;100.00;95706.03;5001238;28;20409;-82
2023/11/30 10:00:53;;;;;;;24.45;13.52;;;;;;;0.50;100.00;95720.19;5003182;28;20398;-81
2023/11/30 10:03:29;;;;;;;20.10;11.43;;;;;;;0.50;100.00;95710.56;5001959;28;20418;-81
2023/11/30 10:05:56;;;;;;;15.33;10.10;;;;;;;0.49;100.00;95701.16;5002041;28;20431;-81
2023/11/30 10:08:23;;;;;;;17.50;10.75;;;;;;;0.44;100.00;95695.88;5001216;28;20430;-81
2023/11/30 10:10:49;;;;;;;15.57;10.02;;;;;;;0.41;100.00;95696.31;5001302;28;20485;-81
2023/11/30 10:13:15;;;;;;;15.90;10.50;;;;;;;0.41;100.00;95682.50;5002917;28;20445;-82
2023/11/30 10:15:41;;;;;;;15.23;10.07;;;;;;;0.43;100.00;95681.25;5002559;28;20771;-81
2023/11/30 10:18:07;;;;;;;14.48;9.75;;;;;;;0.49;100.00;95669.94;5002585;28;20398;-82
2023/11/30 10:20:35;;;;;;;13.63;9.40;;;;;;;0.57;100.00;95671.38;5002597;28;20399;-81
2023/11/30 10:23:10;;;;;;;11.15;8.32;;;;;;;0.69;100.00;95680.75;4999644;28;20418;-82
2023/11/30 10:25:37;;;;;;;11.93;8.52;;;;;;;0.86;100.00;95673.00;5008933;28;20883;-81
2023/11/30 10:28:05;;;;;;;12.82;8.48;;;;;;;1.05;100.00;95663.97;5005123;28;20399;-81
2023/11/30 10:30:33;;;;;;;10.55;8.15;;;;;;;1.22;100.00;95665.81;5000226;28;20820;-81
2023/11/30 10:33:03;;;;;;;10.77;8.30;;;;;;;1.35;100.00;95670.75;5012237;28;20410;-79
2023/11/30 10:35:30;;;;;;;9.00;7.72;;;;;;;1.43;100.00;95671.16;5011852;28;20468;-82
2023/11/30 10:37:58;;;;;;;10.35;7.88;;;;;;;1.50;100.00;95671.03;4994983;28;20442;-81
2023/11/30 10:40:27;;;;;;;10.43;7.97;;;;;;;1.60;100.00;95672.97;4998330;28;20430;-82
2023/11/30 10:42:58;;;;;;;9.30;7.30;;;;;;;1.75;100.00;95676.63;4998558;28;20453;-82
2023/11/30 10:45:27;;;;;;;9.82;6.97;;;;;;;1.98;100.00;95673.06;4997947;28;20460;-81
2023/11/30 10:47:55;;;;;;;9.20;7.63;;;;;;;2.18;100.00;95660.28;4998083;28;20440;-82
2023/11/30 10:50:21;;;;;;;9.23;7.03;;;;;;;2.31;100.00;95664.41;4997400;28;20503;-82
2023/11/30 10:52:50;;;;;;;10.07;7.30;;;;;;;2.34;100.00;95661.28;4997917;28;20402;-81
2023/11/30 10:55:19;;;;;;;15.95;11.32;;;;;;;2.29;100.00;95669.06;4997943;28;20490;-81
2023/11/30 10:57:47;;;;;;;18.70;13.80;;;;;;;2.15;100.00;95660.78;5004964;28;20462;-82
2023/11/30 11:00:15;;;;;;;16.67;12.17;;;;;;;2.10;100.00;95642.47;4998136;28;20805;-81
2023/11/30 11:02:43;;;;;;;14.90;10.80;;;;;;;2.14;100.00;95638.31;4997596;28;21178;-82
2023/11/30 11:05:13;;;;;;;14.43;10.93;;;;;;;2.29;100.00;95641.13;4997173;28;20487;-83
2023/11/30 11:07:43;;;;;;;11.13;9.27;;;;;;;2.45;100.00;95643.94;4997200;28;20401;-83
2023/11/30 11:10:18;;;;;;;16.45;9.70;;;;;;;2.57;100.00;95639.38;4997042;28;20452;-81